createdAt,value
2019-04-04T00:17:10.275Z,35.55
2019-04-04T00:19:48.143Z,67.05
2019-04-04T00:22:16.607Z,66.72
2019-04-04T00:26:20.403Z,68.20
2019-04-04T00:30:37.542Z,64.00
2019-04-04T00:38:17.360Z,61.68
2019-04-04T00:43:01.504Z,70.97
2019-04-04T00:49:04.837Z,77.87
2019-04-04T00:53:27.611Z,76.22
2019-04-04T00:56:16.061Z,59.13
2019-04-04T01:01:32.764Z,57.03
2019-04-04T01:12:21.420Z,43.80
2019-04-04T01:14:49.416Z,43.33
2019-04-04T01:18:54.940Z,42.03
2019-04-04T01:21:24.124Z,42.15
2019-04-04T01:25:49.118Z,43.92
2019-04-04T01:29:05.720Z,42.35
2019-04-04T01:31:34.599Z,41.15
2019-04-04T01:34:04.258Z,42.15
2019-04-04T01:36:33.620Z,44.38
2019-04-04T01:39:30.889Z,42.90
2019-04-04T01:42:56.190Z,43.15
2019-04-04T01:45:25.699Z,41.68
2019-04-04T01:50:03.101Z,43.17
2019-04-04T01:52:35.257Z,40.50
2019-04-04T01:56:31.111Z,41.77
2019-04-04T01:59:01.907Z,40.73
2019-04-04T02:03:05.239Z,35.95
2019-04-04T02:06:59.891Z,37.67
2019-04-04T02:09:33.794Z,36.95
2019-04-04T02:13:19.004Z,36.98
2019-04-04T02:15:47.420Z,36.88
2019-04-04T02:18:53.853Z,36.42
2019-04-04T02:22:56.355Z,34.35
2019-04-04T02:25:24.793Z,33.75
2019-04-04T02:27:53.171Z,34.53
2019-04-04T02:30:22.557Z,35.78
2019-04-04T02:32:52.006Z,34.63
2019-04-04T02:35:24.172Z,34.85
2019-04-04T02:37:55.423Z,34.10
2019-04-04T02:40:23.709Z,35.67
2019-04-04T02:44:36.562Z,36.68
2019-04-04T02:47:05.142Z,33.78
2019-04-04T02:49:36.269Z,36.13
2019-04-04T02:54:25.894Z,37.13
2019-04-04T02:56:56.455Z,37.25
2019-04-04T03:00:40.781Z,38.28
2019-04-04T03:03:09.577Z,38.63
2019-04-04T03:05:38.141Z,38.92
2019-04-04T03:08:06.554Z,38.48
2019-04-04T03:10:35.006Z,37.00
2019-04-04T03:13:55.989Z,36.25
2019-04-04T03:16:24.444Z,37.98
2019-04-04T03:18:52.829Z,38.85
2019-04-04T03:21:23.890Z,38.88
2019-04-04T03:23:53.259Z,40.55
2019-04-04T03:27:08.869Z,41.05
2019-04-04T03:29:38.257Z,42.90
2019-04-04T03:34:50.072Z,39.58
2019-04-04T03:37:17.208Z,40.78
2019-04-04T03:41:02.275Z,44.63
2019-04-04T03:43:32.137Z,44.35
2019-04-04T03:48:30.161Z,45.20
2019-04-04T03:52:45.663Z,42.88
2019-04-04T03:57:35.964Z,44.73
2019-04-04T04:00:07.483Z,41.33
2019-04-04T04:04:37.176Z,46.35
2019-04-04T04:07:08.087Z,46.08
2019-04-04T04:11:57.940Z,49.53
2019-04-04T04:15:30.674Z,46.13
2019-04-04T04:17:59.165Z,50.17
2019-04-04T04:23:12.175Z,49.05
2019-04-04T04:25:42.222Z,46.88
2019-04-04T04:29:34.058Z,48.50
2019-04-04T04:32:09.589Z,46.98
2019-04-04T04:35:43.901Z,47.17
2019-04-04T04:39:15.780Z,45.35
2019-04-04T04:42:48.734Z,47.08
2019-04-04T04:45:20.960Z,45.70
2019-04-04T04:49:55.135Z,45.73
2019-04-04T04:54:57.765Z,46.25
2019-04-04T04:57:29.983Z,43.10
2019-04-04T05:00:09.755Z,46.60
2019-04-04T05:02:38.157Z,47.90
2019-04-04T05:05:07.198Z,43.25
2019-04-04T05:07:38.449Z,43.48
2019-04-04T05:12:59.485Z,43.63
2019-04-04T05:15:30.394Z,39.92
2019-04-04T05:21:33.833Z,42.65
2019-04-04T05:26:54.360Z,41.08
2019-04-04T05:29:22.749Z,38.20
2019-04-04T05:32:53.062Z,44.35
2019-04-04T05:37:22.607Z,41.65
2019-04-04T05:39:58.738Z,41.67
2019-04-04T05:45:14.357Z,40.70
2019-04-04T05:47:43.041Z,37.63
2019-04-04T05:51:57.391Z,38.33
2019-04-04T05:54:25.800Z,34.73
2019-04-04T05:56:54.502Z,36.70
2019-04-04T06:02:55.623Z,34.48
2019-04-04T06:05:27.206Z,33.38
2019-04-04T06:10:53.236Z,36.13
2019-04-04T06:15:18.709Z,35.13
2019-04-04T06:18:54.943Z,31.73
2019-04-04T06:23:26.763Z,33.30
2019-04-04T06:25:56.274Z,33.78
2019-04-04T06:30:08.321Z,34.23
2019-04-04T06:32:38.855Z,30.92
2019-04-04T06:37:38.820Z,30.97
2019-04-04T06:40:07.726Z,30.62
2019-04-04T06:44:55.271Z,30.68
2019-04-04T06:49:35.583Z,29.37
2019-04-04T06:55:04.175Z,28.50
2019-04-04T07:00:37.688Z,24.45
2019-04-04T07:05:10.294Z,26.77
2019-04-04T07:07:39.184Z,24.40
2019-04-04T07:12:45.214Z,25.88
2019-04-04T07:17:12.556Z,24.92
2019-04-04T07:19:46.978Z,22.32
2019-04-04T07:23:42.129Z,23.70
2019-04-04T07:27:10.525Z,23.85
2019-04-04T07:31:48.518Z,24.80
2019-04-04T07:36:54.034Z,21.57
2019-04-04T07:45:45.747Z,19.20
2019-04-04T07:51:39.919Z,18.55
2019-04-04T07:57:56.718Z,15.70
2019-04-04T08:01:58.960Z,15.55
2019-04-04T08:08:00.557Z,14.68
2019-04-04T08:10:28.948Z,15.37
2019-04-04T08:14:08.367Z,17.05
2019-04-04T08:16:36.792Z,17.50
2019-04-04T08:19:05.503Z,17.02
2019-04-04T08:22:28.881Z,17.27
2019-04-04T08:24:57.277Z,16.83
2019-04-04T08:27:42.090Z,15.58
2019-04-04T08:30:15.015Z,16.75
2019-04-04T08:33:36.427Z,14.38
2019-04-04T08:36:06.317Z,16.75
2019-04-04T08:38:35.106Z,17.55
2019-04-04T08:41:03.495Z,17.32
2019-04-04T08:43:31.956Z,17.15
2019-04-04T08:46:00.389Z,19.07
2019-04-04T08:48:28.758Z,16.85
2019-04-04T08:53:17.107Z,17.45
2019-04-04T08:55:49.326Z,16.32
2019-04-04T09:00:04.585Z,16.90
2019-04-04T09:08:19.312Z,18.92
2019-04-04T09:15:09.552Z,17.80
2019-04-04T09:19:09.117Z,19.35
2019-04-04T09:25:02.793Z,22.48
2019-04-04T13:46:54.802Z,21.07
2019-04-04T13:56:59.631Z,38.45
2019-04-04T14:03:18.900Z,39.05
2019-04-04T18:31:16.641Z,40.73
2019-04-04T18:37:28.185Z,48.15
2019-04-04T18:42:26.867Z,44.10
2019-04-04T18:47:47.713Z,38.33
2019-04-04T18:52:25.171Z,34.80
2019-04-04T18:57:02.718Z,32.73
2019-04-04T19:01:13.263Z,29.02
2019-04-04T19:03:44.110Z,25.97
2019-04-04T19:08:43.335Z,27.17
2019-04-04T19:11:11.799Z,26.48
2019-04-04T19:15:19.380Z,25.85
2019-04-04T19:17:47.804Z,23.65
2019-04-04T19:21:42.209Z,26.23
2019-04-04T19:24:10.707Z,23.77
2019-04-04T19:26:39.102Z,23.10
2019-04-04T19:29:07.711Z,23.83
2019-04-04T19:32:39.713Z,24.92
2019-04-04T19:35:08.775Z,24.20
2019-04-04T19:37:37.315Z,22.50
2019-04-04T19:40:08.253Z,25.50
2019-04-04T19:42:36.661Z,25.17
2019-04-04T19:45:08.551Z,23.07
2019-04-04T19:47:37.204Z,25.90
2019-04-04T19:50:11.039Z,23.85
2019-04-04T19:52:40.331Z,25.62
2019-04-04T19:55:09.581Z,25.08
2019-04-04T19:57:38.090Z,24.07
2019-04-04T20:00:10.291Z,27.62
2019-04-04T20:02:38.690Z,26.60
2019-04-04T20:05:13.962Z,26.95
2019-04-04T20:07:42.348Z,27.70
2019-04-04T20:10:12.624Z,28.85
2019-04-04T20:12:51.618Z,28.73
2019-04-04T20:15:20.353Z,30.52
2019-04-04T20:18:12.519Z,33.33
2019-04-04T20:20:40.984Z,35.38
2019-04-04T20:23:15.786Z,32.13
2019-04-04T20:25:44.273Z,34.57
2019-04-04T20:28:20.937Z,34.08
2019-04-04T20:30:53.075Z,35.80
2019-04-04T20:33:25.397Z,35.60
2019-04-04T20:38:23.459Z,35.73
2019-04-04T20:40:54.255Z,39.15
2019-04-04T20:43:23.608Z,38.55
2019-04-04T20:45:54.512Z,40.83
2019-04-04T20:48:22.983Z,38.53
2019-04-04T20:50:51.374Z,39.15
2019-04-04T20:53:22.449Z,40.38
2019-04-04T20:55:53.917Z,41.23
2019-04-04T20:58:26.734Z,41.95
2019-04-04T21:00:55.145Z,39.45
2019-04-04T21:03:23.604Z,36.35
2019-04-04T21:05:52.009Z,38.25
2019-04-04T21:08:24.347Z,38.15
2019-04-04T21:11:03.587Z,38.67
2019-04-04T21:13:32.049Z,36.38
2019-04-04T21:16:00.487Z,37.38
2019-04-04T21:18:28.920Z,36.23
2019-04-04T21:20:57.400Z,37.90
2019-04-04T21:23:25.809Z,36.42
2019-04-04T21:25:54.188Z,39.05
2019-04-04T21:28:24.532Z,38.90
2019-04-04T21:30:52.932Z,36.20
2019-04-04T21:33:30.472Z,35.15
2019-04-04T21:35:58.868Z,37.13
2019-04-04T21:38:27.300Z,36.60
2019-04-04T21:40:55.691Z,38.78
2019-04-04T21:43:24.104Z,40.45
2019-04-04T21:45:52.526Z,39.30
2019-04-04T21:48:21.011Z,44.08
2019-04-04T21:50:51.321Z,41.35
2019-04-04T21:53:20.936Z,46.98
2019-04-04T21:55:49.368Z,49.63
2019-04-04T21:58:19.779Z,49.05
2019-04-04T22:00:51.577Z,48.65
2019-04-04T22:03:22.680Z,52.85
2019-04-04T22:05:53.651Z,54.67
2019-04-04T22:08:22.065Z,57.80
2019-04-04T22:10:50.488Z,50.05
2019-04-04T22:13:18.884Z,43.63
2019-04-04T22:15:51.129Z,41.25
2019-04-04T22:18:21.886Z,41.42
2019-04-04T22:20:52.702Z,42.33
2019-04-04T22:23:21.106Z,49.90
2019-04-04T22:25:50.506Z,54.48
2019-04-04T22:28:21.710Z,57.67
2019-04-04T22:30:56.863Z,54.93
2019-04-04T22:33:28.065Z,58.15
2019-04-04T22:35:57.609Z,58.00
2019-04-04T22:38:27.536Z,57.98
2019-04-04T22:40:55.916Z,60.85
2019-04-04T22:43:28.470Z,69.37
2019-04-04T22:45:57.973Z,74.75
2019-04-04T22:48:31.472Z,77.10
2019-04-04T22:51:05.512Z,84.30
2019-04-04T22:53:32.256Z,80.67
2019-04-04T22:56:55.795Z,79.65
2019-04-04T23:01:51.816Z,76.12
2019-04-04T23:05:16.921Z,81.57
2019-04-04T23:07:45.337Z,82.37
2019-04-04T23:10:20.855Z,88.37
2019-04-04T23:13:33.156Z,91.47
2019-04-04T23:16:06.576Z,88.53
2019-04-04T23:18:34.986Z,92.30
2019-04-04T23:21:03.442Z,93.80
2019-04-04T23:23:34.363Z,97.57
2019-04-04T23:26:10.382Z,93.05
2019-04-04T23:29:22.838Z,96.32
2019-04-04T23:34:23.669Z,94.47
2019-04-04T23:36:54.366Z,96.35
2019-04-04T23:39:22.986Z,98.22
2019-04-04T23:42:16.152Z,99.95
2019-04-04T23:44:46.384Z,99.16
2019-04-04T23:47:15.873Z,101.10
2019-04-04T23:49:45.224Z,99.80
2019-04-04T23:52:14.632Z,100.42
2019-04-04T23:54:43.048Z,101.18
2019-04-04T23:57:11.470Z,96.63
2019-04-04T23:59:39.866Z,92.12
